Dawson, Alabama
Current Conditions -  °F | °C
As of 5:15 AM on Sunday 23 Nov 2014 (Local Time) from K4A9 Reporting Station
Drizzle Drizzle  
Wind Chill: 50°   Ceiling: 4800
Heat Index: 50°   Visibility: 5mi
Dew Point: 43°   Wind: 9mph
Humidity: 76%   Direction: 100°E
Pressure: 29.98"   Gusts: 17mph
Location:  34.3°N, 85.93°W
Report Text: K4A9 231115Z AUTO 10008G15KT 070V130 5SM -DZ SCT014 BKN048 OVC070 10/06 A2998 RMK AO2
Loading
Personal Weather Stations






























Interactive Weather Map New forecast layout! Learn more

10-Day Weather Forecast

Advertisements
Track Severe Weather on mobile